Time;durP1;ratioP1;P1;durP2;ratioP2;P2;SDS_P1;SDS_P2;PMS_P1;PMS_P2;Temp;Humidity;BMP_temperature;BMP_pressure;BME280_temperature;BME280_humidity;BME280_pressure;Samples;Min_cycle;Max_cycle;Signal;HPM_P1;HPM_P2
2023/08/14 00:01:27;;;;;;;6.38;4.22;;;13.80;90.60;;;;;;5042278;28;20033;-80
2023/08/14 00:03:54;;;;;;;5.60;3.90;;;13.90;90.60;;;;;;5042339;28;21921;-77
2023/08/14 00:06:22;;;;;;;9.63;3.25;;;13.90;90.80;;;;;;5050080;28;20422;-80
2023/08/14 00:08:49;;;;;;;5.30;3.03;;;14.00;90.70;;;;;;5051312;28;20029;-80
2023/08/14 00:11:16;;;;;;;8.88;2.90;;;14.00;90.70;;;;;;5049087;28;20431;-78
2023/08/14 00:13:54;;;;;;;5.45;2.70;;;14.00;90.60;;;;;;5050249;28;20048;-80
2023/08/14 00:16:23;;;;;;;5.53;2.90;;;14.00;90.60;;;;;;5046331;28;20029;-79
2023/08/14 00:18:50;;;;;;;4.32;2.67;;;14.20;90.70;;;;;;5050068;28;20041;-81
2023/08/14 00:21:20;;;;;;;5.28;2.38;;;14.20;90.70;;;;;;5056051;28;20574;-81
2023/08/14 00:23:48;;;;;;;2.55;1.92;;;14.20;90.60;;;;;;5044830;28;20025;-80
2023/08/14 00:26:15;;;;;;;9.48;2.60;;;14.20;90.60;;;;;;5049387;28;20315;-78
2023/08/14 00:28:42;;;;;;;8.32;2.35;;;14.20;90.70;;;;;;5048912;28;20025;-79
2023/08/14 00:31:10;;;;;;;7.32;3.17;;;14.20;90.70;;;;;;5047687;28;20028;-79
2023/08/14 00:33:37;;;;;;;6.25;3.10;;;14.30;90.40;;;;;;5059444;28;20053;-77
2023/08/14 00:36:08;;;;;;;6.35;3.67;;;14.20;90.40;;;;;;5062710;28;20032;-78
2023/08/14 00:38:35;;;;;;;6.68;2.97;;;14.30;90.40;;;;;;5054756;28;20455;-77
2023/08/14 00:41:03;;;;;;;2.90;2.00;;;14.30;90.40;;;;;;5055725;28;20029;-78
2023/08/14 00:43:30;;;;;;;3.20;1.80;;;14.30;90.40;;;;;;5053729;28;20026;-77
2023/08/14 00:45:58;;;;;;;2.75;1.73;;;14.30;90.40;;;;;;5057616;28;20166;-77
2023/08/14 00:48:27;;;;;;;2.20;1.85;;;14.40;90.30;;;;;;5066062;28;20048;-77
2023/08/14 00:50:54;;;;;;;2.83;2.35;;;14.30;90.10;;;;;;5060211;28;20103;-77
2023/08/14 00:53:25;;;;;;;3.00;2.05;;;14.40;90.10;;;;;;5048397;28;20040;-76
2023/08/14 00:55:53;;;;;;;3.33;1.95;;;14.30;90.00;;;;;;5057756;28;20029;-77
2023/08/14 00:58:23;;;;;;;3.45;2.20;;;14.40;90.00;;;;;;5053397;28;20024;-82
2023/08/14 01:00:51;;;;;;;3.38;2.25;;;14.30;90.00;;;;;;5051516;28;20029;-75
2023/08/14 01:03:21;;;;;;;3.80;2.03;;;14.40;90.10;;;;;;5048549;28;20025;-76
2023/08/14 01:05:50;;;;;;;3.88;2.00;;;14.40;90.00;;;;;;5042584;28;20025;-76
2023/08/14 01:08:17;;;;;;;4.15;2.00;;;14.40;89.90;;;;;;5046835;28;20028;-76
2023/08/14 01:11:17;;;;;;;5.65;2.28;;;14.40;89.80;;;;;;5048423;28;20017;-77
2023/08/14 01:14:24;;;;;;;5.10;1.98;;;14.40;89.70;;;;;;5032608;28;20049;-77
2023/08/14 01:16:59;;;;;;;2.05;1.88;;;14.40;89.80;;;;;;5057796;28;20037;-78
2023/08/14 01:19:33;;;;;;;2.78;1.83;;;14.40;89.70;;;;;;5050521;28;20131;-79
2023/08/14 01:22:30;;;;;;;2.45;2.17;;;14.40;89.60;;;;;;5044955;28;20048;-77
2023/08/14 01:25:00;;;;;;;2.30;1.98;;;14.50;89.60;;;;;;5058160;28;20033;-78
2023/08/14 01:27:28;;;;;;;4.45;2.25;;;14.50;89.50;;;;;;5052032;28;20108;-76
2023/08/14 01:29:58;;;;;;;2.40;2.20;;;14.50;89.30;;;;;;5049934;28;20048;-77
2023/08/14 01:32:26;;;;;;;3.22;2.10;;;14.50;89.10;;;;;;5052535;28;20037;-78
2023/08/14 01:34:55;;;;;;;3.58;1.75;;;14.50;89.20;;;;;;5052998;28;20029;-78
2023/08/14 01:37:41;;;;;;;1.85;1.75;;;14.60;89.10;;;;;;5052637;28;20141;-77
2023/08/14 01:40:21;;;;;;;2.90;1.65;;;14.70;89.10;;;;;;5039195;28;20104;-78
2023/08/14 01:42:52;;;;;;;3.05;2.10;;;14.70;89.00;;;;;;5035549;28;20029;-78
2023/08/14 01:45:22;;;;;;;3.78;1.80;;;14.70;88.90;;;;;;5035390;28;20026;-78
2023/08/14 01:47:52;;;;;;;1.98;1.77;;;14.80;88.90;;;;;;5035357;28;20382;-79
2023/08/14 01:50:24;;;;;;;2.83;1.85;;;14.80;88.70;;;;;;5050407;28;20025;-77
2023/08/14 01:52:51;;;;;;;3.42;1.92;;;14.80;88.70;;;;;;5035883;28;20038;-77
2023/08/14 01:55:18;;;;;;;2.90;2.03;;;14.80;88.60;;;;;;5050420;28;20026;-76
2023/08/14 01:57:47;;;;;;;1.98;1.80;;;14.90;88.30;;;;;;5035423;28;20024;-78
2023/08/14 02:00:15;;;;;;;2.00;1.70;;;14.90;88.20;;;;;;5035472;28;20040;-77
2023/08/14 02:02:42;;;;;;;3.92;2.30;;;15.00;88.00;;;;;;5035412;28;20040;-77
2023/08/14 02:05:09;;;;;;;1.70;1.60;;;15.00;87.80;;;;;;5035086;28;20072;-82
2023/08/14 02:07:37;;;;;;;1.75;1.65;;;14.90;87.20;;;;;;5035372;28;20022;-78
2023/08/14 02:10:07;;;;;;;2.17;1.85;;;14.90;87.10;;;;;;5035193;28;20108;-77
2023/08/14 02:12:35;;;;;;;2.35;1.90;;;14.90;87.00;;;;;;5035279;28;20021;-78
2023/08/14 02:15:02;;;;;;;1.90;1.80;;;15.00;87.00;;;;;;5035045;28;20030;-79
2023/08/14 02:17:30;;;;;;;2.50;1.98;;;15.00;86.70;;;;;;5034671;28;20151;-79
2023/08/14 02:19:57;;;;;;;2.25;1.77;;;14.90;86.60;;;;;;5035090;28;20399;-79
2023/08/14 02:22:24;;;;;;;1.88;1.60;;;14.90;85.80;;;;;;5035066;28;20025;-78
2023/08/14 02:24:53;;;;;;;1.80;1.65;;;14.90;85.90;;;;;;5035051;28;20037;-78
2023/08/14 02:27:20;;;;;;;4.82;2.20;;;15.00;86.10;;;;;;5033437;28;20396;-79
2023/08/14 02:29:47;;;;;;;1.98;1.75;;;15.00;86.10;;;;;;5034736;28;20020;-78
2023/08/14 02:32:15;;;;;;;2.97;2.10;;;15.00;86.00;;;;;;5034844;28;20460;-77
2023/08/14 02:34:52;;;;;;;2.20;1.98;;;15.10;86.30;;;;;;5034630;28;20041;-78
2023/08/14 02:37:20;;;;;;;2.92;1.77;;;15.10;86.30;;;;;;5034527;28;20025;-78
2023/08/14 02:39:47;;;;;;;2.58;1.95;;;15.10;86.30;;;;;;5034459;28;20460;-77
2023/08/14 02:42:17;;;;;;;2.88;2.28;;;15.20;86.00;;;;;;5034697;28;20021;-78
2023/08/14 02:44:44;;;;;;;2.83;2.10;;;15.10;85.60;;;;;;5034617;28;20104;-78
2023/08/14 02:47:12;;;;;;;2.50;2.30;;;15.10;85.80;;;;;;5034024;28;20468;-78
2023/08/14 02:49:39;;;;;;;5.60;4.72;;;15.20;85.90;;;;;;5034437;28;20021;-81
2023/08/14 02:52:06;;;;;;;5.22;3.10;;;15.20;86.00;;;;;;5034304;28;20029;-79
2023/08/14 02:54:34;;;;;;;2.00;1.85;;;15.20;85.70;;;;;;5034187;28;20034;-78
2023/08/14 02:57:01;;;;;;;2.28;1.92;;;15.20;85.90;;;;;;5034265;28;20499;-81
2023/08/14 02:59:29;;;;;;;2.03;1.92;;;15.20;86.00;;;;;;5034011;28;20029;-83
2023/08/14 03:01:56;;;;;;;4.97;2.03;;;15.20;85.70;;;;;;5034151;28;20032;-78
2023/08/14 03:04:23;;;;;;;2.00;1.90;;;15.20;85.90;;;;;;5034132;28;20064;-78
2023/08/14 03:06:51;;;;;;;3.50;2.47;;;15.10;85.60;;;;;;5034149;28;20021;-77
2023/08/14 03:09:18;;;;;;;3.75;2.30;;;15.20;85.70;;;;;;5033630;28;20021;-76
2023/08/14 03:11:47;;;;;;;2.40;2.20;;;15.20;85.80;;;;;;5033930;28;20412;-77
2023/08/14 03:14:14;;;;;;;3.28;2.45;;;15.20;85.70;;;;;;5033958;28;20120;-78
2023/08/14 03:16:42;;;;;;;4.10;2.60;;;15.10;85.70;;;;;;5033745;28;20429;-79
2023/08/14 03:19:10;;;;;;;3.47;2.55;;;15.20;85.90;;;;;;5033457;28;20443;-80
2023/08/14 03:21:38;;;;;;;3.17;2.72;;;15.20;86.10;;;;;;5033932;28;20013;-78
2023/08/14 03:24:06;;;;;;;2.95;2.50;;;15.10;86.20;;;;;;5033941;28;20041;-79
2023/08/14 03:26:33;;;;;;;3.70;2.72;;;15.20;86.30;;;;;;5034868;28;20480;-77
2023/08/14 03:29:00;;;;;;;3.25;2.67;;;15.10;86.40;;;;;;5034701;28;20021;-78
2023/08/14 03:31:31;;;;;;;3.55;2.50;;;15.10;86.70;;;;;;5033565;28;20033;-78
2023/08/14 03:33:59;;;;;;;4.82;2.63;;;15.20;86.60;;;;;;5033486;28;20069;-79
2023/08/14 03:36:26;;;;;;;4.95;3.20;;;15.20;86.60;;;;;;5033622;28;20517;-76
2023/08/14 03:38:53;;;;;;;4.10;2.45;;;15.10;86.60;;;;;;5033427;28;20025;-76
2023/08/14 03:41:21;;;;;;;3.42;3.13;;;15.10;86.80;;;;;;5033277;28;20017;-77
2023/08/14 03:43:48;;;;;;;3.13;2.13;;;15.10;87.00;;;;;;5033402;28;20033;-77
2023/08/14 03:46:17;;;;;;;4.20;2.25;;;15.10;86.80;;;;;;5033415;28;20479;-79
2023/08/14 03:48:44;;;;;;;2.22;2.03;;;15.10;87.00;;;;;;5033379;28;20030;-77
2023/08/14 03:51:12;;;;;;;3.67;1.83;;;15.10;87.10;;;;;;5033204;28;20468;-77
2023/08/14 03:53:40;;;;;;;3.47;1.73;;;15.10;87.10;;;;;;5033040;28;20038;-76
2023/08/14 03:56:08;;;;;;;6.38;1.70;;;15.10;87.10;;;;;;5033101;28;20025;-77
2023/08/14 03:58:35;;;;;;;4.18;1.52;;;15.10;87.30;;;;;;5032576;28;20056;-76
2023/08/14 04:01:05;;;;;;;6.22;1.75;;;14.90;87.50;;;;;;5033166;28;20021;-76
2023/08/14 04:03:34;;;;;;;3.40;1.02;;;15.00;87.70;;;;;;5033127;28;20108;-76
2023/08/14 04:06:01;;;;;;;2.08;1.25;;;14.80;87.80;;;;;;5033308;28;20025;-76
2023/08/14 04:08:29;;;;;;;2.72;1.40;;;14.70;88.10;;;;;;5033020;28;20034;-75
2023/08/14 04:10:57;;;;;;;2.35;1.00;;;14.70;88.30;;;;;;5033021;28;20091;-79
2023/08/14 04:13:26;;;;;;;3.17;0.90;;;14.70;88.30;;;;;;5032842;28;20087;-87
2023/08/14 04:16:00;;;;;;;1.90;0.60;;;14.60;88.50;;;;;;5032966;28;20021;-75
2023/08/14 04:18:28;;;;;;;1.70;0.70;;;14.60;88.40;;;;;;5032861;28;20352;-75
2023/08/14 04:20:57;;;;;;;2.83;0.80;;;14.50;88.60;;;;;;5033036;28;20440;-88
2023/08/14 04:23:26;;;;;;;4.05;0.98;;;14.40;88.70;;;;;;5032835;28;20490;-76
2023/08/14 04:25:53;;;;;;;1.58;0.80;;;14.40;88.80;;;;;;5033034;28;20053;-82
2023/08/14 04:28:21;;;;;;;3.20;0.90;;;14.40;88.90;;;;;;5032746;28;20074;-89
2023/08/14 04:30:49;;;;;;;1.77;0.82;;;14.40;88.90;;;;;;5032918;28;20025;-81
2023/08/14 04:33:17;;;;;;;5.35;1.17;;;14.30;89.00;;;;;;5032580;28;20060;-76
2023/08/14 04:35:44;;;;;;;4.97;1.45;;;14.20;89.10;;;;;;5034035;28;20037;-76
2023/08/14 04:38:11;;;;;;;3.53;0.73;;;14.30;89.20;;;;;;5032923;28;20014;-79
2023/08/14 04:40:39;;;;;;;1.42;0.68;;;14.30;89.40;;;;;;5032557;28;20476;-78
2023/08/14 04:43:06;;;;;;;2.20;0.80;;;14.20;89.20;;;;;;5032730;28;20033;-78
2023/08/14 04:45:33;;;;;;;1.58;0.70;;;14.20;89.30;;;;;;5032702;28;20022;-78
2023/08/14 04:48:01;;;;;;;3.10;0.88;;;14.20;89.30;;;;;;5032823;28;20025;-79
2023/08/14 04:50:28;;;;;;;2.42;0.65;;;14.20;89.40;;;;;;5032483;28;20032;-77
2023/08/14 04:52:55;;;;;;;1.10;0.80;;;14.20;89.50;;;;;;5047873;28;20423;-77
2023/08/14 04:55:23;;;;;;;4.28;0.80;;;14.20;89.50;;;;;;5032263;28;20030;-78
2023/08/14 04:57:51;;;;;;;3.10;0.60;;;14.20;89.50;;;;;;5032463;28;20384;-78
2023/08/14 05:00:18;;;;;;;1.58;0.85;;;14.20;89.60;;;;;;5032491;28;20472;-78
2023/08/14 05:02:46;;;;;;;2.22;0.70;;;14.20;89.60;;;;;;5032543;28;20475;-78
2023/08/14 05:05:13;;;;;;;1.85;0.70;;;14.20;89.60;;;;;;5032241;28;20492;-78
2023/08/14 05:07:42;;;;;;;3.35;0.90;;;14.20;89.70;;;;;;5032507;28;20026;-78
2023/08/14 05:10:09;;;;;;;4.43;0.90;;;14.20;89.60;;;;;;5035255;28;20172;-78
2023/08/14 05:12:39;;;;;;;3.72;0.82;;;14.20;89.80;;;;;;5036853;28;20109;-77
2023/08/14 05:15:07;;;;;;;2.38;0.75;;;14.20;89.70;;;;;;5051482;28;20037;-77
2023/08/14 05:17:37;;;;;;;1.25;0.60;;;14.20;89.70;;;;;;5036003;28;20464;-78
2023/08/14 05:20:05;;;;;;;2.22;0.57;;;14.20;89.70;;;;;;5036589;28;20086;-78
2023/08/14 05:22:33;;;;;;;1.85;0.65;;;14.20;89.80;;;;;;5036206;28;20022;-78
2023/08/14 05:25:00;;;;;;;2.40;0.60;;;14.20;89.80;;;;;;5051336;28;20498;-78
2023/08/14 05:27:27;;;;;;;2.25;0.80;;;14.10;89.70;;;;;;5035808;28;20095;-76
2023/08/14 05:29:55;;;;;;;2.42;0.80;;;14.00;89.70;;;;;;5035940;28;20033;-76
2023/08/14 05:32:22;;;;;;;2.72;0.70;;;14.00;89.80;;;;;;5035942;28;20064;-76
2023/08/14 05:34:50;;;;;;;2.20;0.68;;;14.00;89.70;;;;;;5035802;28;20025;-77
2023/08/14 05:37:17;;;;;;;1.42;0.70;;;14.00;89.70;;;;;;5035597;28;20083;-78
2023/08/14 05:39:44;;;;;;;2.47;1.00;;;13.90;89.80;;;;;;5035659;28;20029;-78
2023/08/14 05:42:12;;;;;;;2.22;0.80;;;13.90;89.70;;;;;;5035941;28;20371;-78
2023/08/14 05:44:39;;;;;;;0.88;0.50;;;13.90;89.70;;;;;;5035766;28;20033;-77
2023/08/14 05:47:06;;;;;;;1.90;0.60;;;13.90;89.70;;;;;;5035466;28;20451;-77
2023/08/14 05:49:34;;;;;;;1.80;0.60;;;13.90;89.80;;;;;;5035639;28;20431;-78
2023/08/14 05:52:01;;;;;;;1.58;0.60;;;13.90;89.80;;;;;;5035631;28;20029;-78
2023/08/14 05:54:28;;;;;;;2.83;0.55;;;13.90;89.70;;;;;;5035312;28;20475;-77
2023/08/14 05:56:56;;;;;;;1.98;0.50;;;13.90;89.80;;;;;;5035573;28;20100;-79
2023/08/14 05:59:23;;;;;;;2.08;0.60;;;13.90;89.80;;;;;;5035236;28;20033;-78
2023/08/14 06:01:54;;;;;;;3.63;0.65;;;13.90;89.80;;;;;;5035437;28;20543;-80
2023/08/14 06:04:22;;;;;;;2.05;0.63;;;13.80;89.80;;;;;;5035308;28;20026;-79
2023/08/14 06:06:50;;;;;;;4.75;0.85;;;13.80;89.70;;;;;;5035355;28;20394;-79
2023/08/14 06:09:17;;;;;;;2.55;0.70;;;13.80;89.80;;;;;;5034854;28;20021;-78
2023/08/14 06:11:44;;;;;;;5.13;1.05;;;13.90;89.90;;;;;;5035231;28;20029;-78
2023/08/14 06:14:12;;;;;;;2.35;0.80;;;13.90;90.00;;;;;;5035093;28;20387;-78
2023/08/14 06:16:40;;;;;;;4.05;0.80;;;13.90;89.90;;;;;;5050410;28;20495;-75
2023/08/14 06:19:07;;;;;;;2.20;0.95;;;13.90;90.00;;;;;;5034703;28;20140;-75
2023/08/14 06:21:34;;;;;;;2.67;0.82;;;13.90;90.00;;;;;;5034394;28;20032;-76
2023/08/14 06:24:02;;;;;;;1.35;0.60;;;13.90;90.00;;;;;;5034824;28;20476;-75
2023/08/14 06:26:29;;;;;;;2.85;0.80;;;13.90;90.00;;;;;;5035008;28;20045;-76
2023/08/14 06:28:56;;;;;;;1.27;0.70;;;13.90;90.00;;;;;;5034898;28;20025;-76
2023/08/14 06:31:24;;;;;;;1.42;0.43;;;13.90;89.90;;;;;;5034619;28;20040;-76
2023/08/14 06:33:51;;;;;;;1.92;0.70;;;13.90;89.90;;;;;;5034697;28;20113;-79
2023/08/14 06:36:19;;;;;;;1.05;0.70;;;13.90;89.80;;;;;;5034741;28;20076;-77
2023/08/14 06:38:47;;;;;;;4.10;1.23;;;13.90;89.80;;;;;;5034418;28;20025;-75
2023/08/14 06:41:14;;;;;;;1.40;0.75;;;13.90;89.80;;;;;;5034473;28;20032;-76
2023/08/14 06:43:42;;;;;;;2.42;1.00;;;13.90;89.70;;;;;;5034689;28;20026;-76
2023/08/14 06:46:09;;;;;;;1.85;1.00;;;13.90;89.50;;;;;;5034613;28;20116;-77
2023/08/14 06:48:36;;;;;;;2.42;0.65;;;13.90;89.50;;;;;;5034498;28;20464;-76
2023/08/14 06:51:04;;;;;;;8.98;0.98;;;13.90;89.50;;;;;;5034788;28;20068;-76
2023/08/14 06:53:32;;;;;;;1.83;0.80;;;13.90;89.50;;;;;;5032744;28;20103;-77
2023/08/14 06:56:02;;;;;;;2.65;0.63;;;13.90;89.50;;;;;;5034423;28;20059;-78
2023/08/14 06:58:29;;;;;;;4.75;1.25;;;14.00;89.40;;;;;;5034339;28;20057;-77
2023/08/14 07:01:00;;;;;;;3.22;1.23;;;13.90;89.40;;;;;;5034296;28;20524;-76
2023/08/14 07:03:27;;;;;;;3.38;1.50;;;13.90;89.40;;;;;;5033950;28;20461;-77
2023/08/14 07:05:55;;;;;;;3.88;0.70;;;13.90;89.30;;;;;;5034127;28;20468;-77
2023/08/14 07:08:22;;;;;;;4.45;0.88;;;13.90;89.40;;;;;;5034015;28;20017;-77
2023/08/14 07:10:49;;;;;;;4.18;0.80;;;14.00;89.30;;;;;;5034096;28;20361;-79
2023/08/14 07:13:17;;;;;;;1.80;0.90;;;13.90;89.20;;;;;;5033872;28;20540;-76
2023/08/14 07:15:47;;;;;;;2.92;0.80;;;13.90;89.30;;;;;;5034072;28;20395;-77
2023/08/14 07:18:15;;;;;;;3.28;1.02;;;13.90;89.20;;;;;;5033669;28;20087;-78
2023/08/14 07:20:44;;;;;;;3.47;0.93;;;13.80;89.10;;;;;;5033876;28;20036;-76
2023/08/14 07:23:12;;;;;;;3.70;1.00;;;13.80;89.10;;;;;;5033575;28;20018;-76
2023/08/14 07:25:39;;;;;;;4.85;0.95;;;13.80;89.00;;;;;;5049387;28;20457;-77
2023/08/14 07:28:07;;;;;;;3.65;1.10;;;13.80;89.00;;;;;;5033867;28;20026;-76
2023/08/14 07:30:35;;;;;;;4.28;1.70;;;13.80;89.00;;;;;;5048955;28;20538;-75
2023/08/14 07:33:03;;;;;;;4.65;0.90;;;13.80;89.00;;;;;;5032599;28;20089;-76
2023/08/14 07:35:30;;;;;;;1.83;0.80;;;13.70;89.00;;;;;;5048838;28;20029;-76
2023/08/14 07:38:00;;;;;;;2.20;0.95;;;13.80;89.10;;;;;;5033485;28;20357;-76
2023/08/14 07:40:27;;;;;;;5.65;1.10;;;13.80;89.20;;;;;;5033872;28;20029;-76
2023/08/14 07:42:55;;;;;;;8.13;1.38;;;13.80;89.10;;;;;;5035106;28;20096;-76
2023/08/14 07:45:22;;;;;;;3.00;0.90;;;13.80;89.10;;;;;;5035175;28;20018;-75
2023/08/14 07:47:50;;;;;;;2.28;1.10;;;13.80;89.10;;;;;;5035017;28;20032;-76
2023/08/14 07:50:17;;;;;;;4.55;1.27;;;13.80;89.10;;;;;;5033462;28;20488;-76
2023/08/14 07:52:46;;;;;;;4.72;1.60;;;13.80;89.20;;;;;;5033156;28;20428;-76
2023/08/14 07:55:13;;;;;;;5.70;1.38;;;13.80;89.10;;;;;;5033215;28;20029;-75
2023/08/14 07:57:45;;;;;;;2.00;1.30;;;13.80;89.10;;;;;;5033247;28;20017;-75
2023/08/14 08:00:16;;;;;;;4.78;1.52;;;13.80;89.10;;;;;;5033277;28;20022;-76
2023/08/14 08:02:44;;;;;;;7.72;1.40;;;13.80;89.10;;;;;;5033219;28;20554;-76
2023/08/14 08:05:11;;;;;;;2.97;1.30;;;13.80;89.20;;;;;;5033017;28;20453;-75
2023/08/14 08:07:39;;;;;;;2.63;1.08;;;13.90;89.20;;;;;;5032937;28;20044;-78
2023/08/14 08:10:07;;;;;;;3.35;1.30;;;13.90;89.20;;;;;;5032981;28;20033;-77
2023/08/14 08:12:34;;;;;;;3.80;1.13;;;13.90;89.10;;;;;;5032962;28;20144;-76
2023/08/14 08:15:02;;;;;;;7.30;2.50;;;13.90;89.10;;;;;;5032925;28;20036;-78
2023/08/14 08:17:29;;;;;;;4.63;1.42;;;13.90;89.20;;;;;;5032779;28;20032;-79
2023/08/14 08:19:56;;;;;;;3.63;1.10;;;13.90;89.20;;;;;;5032776;28;20057;-75
2023/08/14 08:22:24;;;;;;;6.00;1.48;;;13.90;89.20;;;;;;5032972;28;20026;-76
2023/08/14 08:24:51;;;;;;;4.65;1.30;;;13.90;89.10;;;;;;5032765;28;20034;-79
2023/08/14 08:27:18;;;;;;;5.82;1.60;;;13.90;89.20;;;;;;5032597;28;20021;-76
2023/08/14 08:29:46;;;;;;;4.32;1.17;;;13.90;89.20;;;;;;5032894;28;20028;-76
2023/08/14 08:32:13;;;;;;;5.38;1.42;;;13.90;89.20;;;;;;5032900;28;20056;-77
2023/08/14 08:34:41;;;;;;;5.32;1.20;;;13.90;89.30;;;;;;5032791;28;20026;-78
2023/08/14 08:37:08;;;;;;;9.73;1.40;;;13.90;89.30;;;;;;5032432;28;20048;-76
2023/08/14 08:39:35;;;;;;;4.32;1.27;;;13.90;89.30;;;;;;5032726;28;20507;-79
2023/08/14 08:42:09;;;;;;;6.90;1.73;;;13.90;89.30;;;;;;5032712;28;20022;-75
2023/08/14 08:44:39;;;;;;;6.93;1.75;;;14.00;89.20;;;;;;5034792;28;20387;-77
2023/08/14 08:47:10;;;;;;;4.28;1.33;;;13.90;89.30;;;;;;5036528;28;20057;-75
2023/08/14 08:49:39;;;;;;;6.53;1.88;;;13.90;89.30;;;;;;5036735;28;20018;-76
2023/08/14 08:52:07;;;;;;;2.65;1.30;;;13.90;89.30;;;;;;5036441;28;20025;-77
2023/08/14 08:54:35;;;;;;;4.35;1.58;;;13.90;89.30;;;;;;5051300;28;20468;-76
2023/08/14 08:57:04;;;;;;;3.72;1.40;;;13.90;89.30;;;;;;5056280;28;20031;-76
2023/08/14 08:59:32;;;;;;;5.38;1.25;;;13.90;89.30;;;;;;5060233;28;20056;-79
2023/08/14 09:02:00;;;;;;;2.90;1.30;;;13.90;89.30;;;;;;5070944;28;20021;-79
2023/08/14 09:04:27;;;;;;;2.63;1.35;;;13.90;89.30;;;;;;5054241;28;20042;-76
2023/08/14 09:06:55;;;;;;;3.05;1.65;;;13.80;89.30;;;;;;5068393;28;20017;-76
2023/08/14 09:09:23;;;;;;;6.15;1.98;;;13.80;89.20;;;;;;5059202;28;20383;-76
2023/08/14 09:11:52;;;;;;;3.90;1.50;;;13.80;89.20;;;;;;5071971;28;20112;-75
2023/08/14 09:14:24;;;;;;;3.13;1.20;;;13.80;89.30;;;;;;5061757;28;20028;-75
2023/08/14 09:16:55;;;;;;;6.18;1.98;;;13.80;89.30;;;;;;5063564;28;20068;-76
2023/08/14 09:19:22;;;;;;;3.88;1.70;;;13.80;89.40;;;;;;5062779;28;20055;-76
2023/08/14 09:21:50;;;;;;;7.60;1.90;;;13.70;89.40;;;;;;5043130;28;20371;-80
2023/08/14 09:24:17;;;;;;;5.22;1.70;;;13.70;89.40;;;;;;5064026;28;20082;-79
2023/08/14 09:26:45;;;;;;;4.57;1.30;;;13.70;89.40;;;;;;5066903;28;20025;-76
2023/08/14 09:29:16;;;;;;;5.18;1.98;;;13.70;89.40;;;;;;5060278;28;20112;-78
2023/08/14 09:31:46;;;;;;;3.42;1.25;;;13.60;89.40;;;;;;5071875;28;20097;-76
2023/08/14 09:34:18;;;;;;;3.45;1.58;;;13.50;89.40;;;;;;5060440;28;20390;-78
2023/08/14 09:36:46;;;;;;;3.65;1.52;;;13.50;89.50;;;;;;5063987;28;20021;-77
2023/08/14 09:39:13;;;;;;;8.00;1.95;;;13.50;89.50;;;;;;5070138;28;20056;-77
2023/08/14 09:41:45;;;;;;;4.93;1.25;;;13.40;89.50;;;;;;5058614;28;20060;-75
2023/08/14 09:44:13;;;;;;;3.75;1.20;;;13.30;89.60;;;;;;5063296;28;20024;-75
2023/08/14 09:46:41;;;;;;;4.32;1.38;;;13.30;89.70;;;;;;5065925;28;20154;-75
2023/08/14 09:49:10;;;;;;;4.57;1.55;;;13.30;89.70;;;;;;5060443;28;20361;-76
2023/08/14 09:51:39;;;;;;;6.40;1.40;;;13.20;89.80;;;;;;5071539;28;20028;-75
2023/08/14 09:54:09;;;;;;;6.57;1.75;;;13.20;89.80;;;;;;5059209;28;20040;-78
2023/08/14 09:56:38;;;;;;;6.30;1.50;;;13.20;89.90;;;;;;5063584;28;20047;-79
2023/08/14 09:59:06;;;;;;;4.80;1.50;;;13.20;90.00;;;;;;5068985;28;20386;-77
2023/08/14 10:01:35;;;;;;;3.20;1.20;;;13.20;89.90;;;;;;5058201;28;20033;-80
2023/08/14 10:04:03;;;;;;;4.45;1.42;;;13.20;90.00;;;;;;5063246;28;20116;-76
2023/08/14 10:06:31;;;;;;;7.82;1.63;;;13.20;90.10;;;;;;5063954;28;20028;-76
2023/08/14 10:08:59;;;;;;;3.55;1.50;;;13.20;90.10;;;;;;5061540;28;20033;-75
2023/08/14 10:11:30;;;;;;;4.22;1.40;;;13.20;90.10;;;;;;5071017;28;20433;-76
2023/08/14 10:14:05;;;;;;;4.60;1.70;;;13.20;90.00;;;;;;5072697;28;20060;-77
2023/08/14 10:16:38;;;;;;;4.85;2.13;;;13.20;90.10;;;;;;5065047;28;20016;-77
2023/08/14 10:19:10;;;;;;;3.78;1.50;;;13.20;90.00;;;;;;5068345;28;20076;-78
2023/08/14 10:21:40;;;;;;;4.55;1.83;;;13.20;90.10;;;;;;5055828;28;20056;-77
2023/08/14 10:24:09;;;;;;;5.75;2.00;;;13.20;90.10;;;;;;5054996;28;20107;-77
2023/08/14 10:26:36;;;;;;;4.22;1.70;;;13.10;90.10;;;;;;5054678;28;20518;-76
2023/08/14 10:29:05;;;;;;;5.28;1.77;;;13.20;90.10;;;;;;5054700;28;20471;-75
2023/08/14 10:31:33;;;;;;;4.85;1.92;;;13.20;90.20;;;;;;5054689;28;20056;-75
2023/08/14 10:34:01;;;;;;;5.85;2.50;;;13.10;90.10;;;;;;5054468;28;20044;-75
2023/08/14 10:36:30;;;;;;;6.65;2.72;;;13.20;90.10;;;;;;5053075;28;20029;-76
2023/08/14 10:39:10;;;;;;;6.70;3.50;;;13.10;90.10;;;;;;5070834;28;20021;-75
2023/08/14 10:41:38;;;;;;;6.03;2.20;;;13.10;90.10;;;;;;5043739;28;20483;-80
2023/08/14 10:44:10;;;;;;;4.88;2.63;;;13.10;90.20;;;;;;5065741;28;20075;-80
2023/08/14 10:46:41;;;;;;;7.97;2.45;;;13.10;90.20;;;;;;5060751;28;20108;-80
2023/08/14 10:49:11;;;;;;;6.80;2.70;;;13.10;90.30;;;;;;5054645;28;20021;-78
2023/08/14 10:51:41;;;;;;;7.57;2.80;;;13.10;90.20;;;;;;5068854;28;20021;-76
2023/08/14 10:54:15;;;;;;;3.13;2.00;;;13.20;90.20;;;;;;5062780;28;20036;-80
2023/08/14 10:56:45;;;;;;;7.28;1.80;;;13.10;90.30;;;;;;5058302;28;20032;-75
2023/08/14 10:59:28;;;;;;;5.28;2.10;;;13.10;90.20;;;;;;5070095;28;20063;-77
2023/08/14 11:02:14;;;;;;;4.80;1.83;;;13.10;90.30;;;;;;5060741;28;20013;-75
2023/08/14 11:05:00;;;;;;;5.38;1.83;;;13.10;90.20;;;;;;5060047;28;20056;-76
2023/08/14 11:07:34;;;;;;;6.22;1.88;;;13.10;90.20;;;;;;5060077;28;20037;-76
2023/08/14 11:10:04;;;;;;;7.78;1.83;;;13.10;90.20;;;;;;5061664;28;20028;-76
2023/08/14 11:12:33;;;;;;;5.10;1.80;;;13.10;90.10;;;;;;5061286;28;20426;-76
2023/08/14 11:15:00;;;;;;;3.58;1.60;;;13.10;90.10;;;;;;5085063;28;20064;-76
2023/08/14 11:17:28;;;;;;;6.47;2.10;;;13.10;90.20;;;;;;5055000;28;20012;-76
2023/08/14 11:19:55;;;;;;;4.35;1.63;;;13.10;90.20;;;;;;5065925;28;20068;-76
2023/08/14 11:22:23;;;;;;;6.85;2.30;;;13.10;90.20;;;;;;5064085;28;20021;-79
2023/08/14 11:24:51;;;;;;;4.80;1.70;;;13.10;90.20;;;;;;5058475;28;20025;-80
2023/08/14 11:27:19;;;;;;;7.13;2.00;;;13.10;90.30;;;;;;5077937;28;20033;-79
2023/08/14 11:29:50;;;;;;;5.28;2.03;;;13.10;90.20;;;;;;5067060;28;20033;-79
2023/08/14 11:32:18;;;;;;;4.70;1.92;;;13.10;90.00;;;;;;5063314;28;20027;-76
2023/08/14 11:34:46;;;;;;;4.53;2.03;;;13.10;90.10;;;;;;5058881;28;20492;-79
2023/08/14 11:37:13;;;;;;;4.18;1.60;;;13.10;90.10;;;;;;5060168;28;20048;-79
2023/08/14 11:39:42;;;;;;;4.18;1.63;;;13.00;89.80;;;;;;5058390;28;20021;-80
2023/08/14 11:42:10;;;;;;;5.90;2.03;;;13.00;89.90;;;;;;5063849;28;20025;-79
2023/08/14 11:44:37;;;;;;;5.55;1.80;;;13.00;90.00;;;;;;5064665;28;20017;-79
2023/08/14 11:47:07;;;;;;;4.53;1.80;;;13.00;89.90;;;;;;5072048;28;20025;-77
2023/08/14 11:49:40;;;;;;;5.65;1.92;;;13.10;90.10;;;;;;5071667;28;20360;-77
2023/08/14 11:52:08;;;;;;;5.22;2.10;;;13.00;90.00;;;;;;5071787;28;20036;-78
2023/08/14 11:54:35;;;;;;;4.18;1.77;;;13.00;89.80;;;;;;5072763;28;20502;-77
2023/08/14 11:57:07;;;;;;;6.72;2.38;;;12.90;89.70;;;;;;5074526;28;20021;-78
2023/08/14 11:59:35;;;;;;;7.05;2.05;;;12.90;89.80;;;;;;5075061;28;20067;-77
2023/08/14 12:02:02;;;;;;;4.43;2.08;;;12.90;89.80;;;;;;5073961;28;20024;-76
2023/08/14 12:04:33;;;;;;;4.70;2.08;;;12.80;89.70;;;;;;5073854;28;20091;-75
2023/08/14 12:07:00;;;;;;;3.28;1.90;;;12.90;89.90;;;;;;5073084;28;20018;-76
2023/08/14 12:09:30;;;;;;;5.25;1.90;;;12.80;89.80;;;;;;5073115;28;20020;-76
2023/08/14 12:11:58;;;;;;;4.15;1.80;;;12.90;89.80;;;;;;5073000;28;20024;-77
2023/08/14 12:14:37;;;;;;;3.92;2.17;;;12.90;89.80;;;;;;5072971;28;20035;-76
2023/08/14 12:17:12;;;;;;;5.35;2.20;;;12.90;89.90;;;;;;5071598;28;20029;-78
2023/08/14 12:19:40;;;;;;;4.40;2.23;;;12.90;89.70;;;;;;5072101;28;20072;-76
2023/08/14 12:22:08;;;;;;;3.80;2.00;;;12.90;89.70;;;;;;5072766;28;20074;-76
2023/08/14 12:24:43;;;;;;;9.68;2.30;;;12.80;89.80;;;;;;5072784;28;20111;-79
2023/08/14 12:27:24;;;;;;;5.88;2.10;;;12.90;89.80;;;;;;5072962;28;20090;-75
2023/08/14 12:29:53;;;;;;;7.40;2.85;;;13.00;89.70;;;;;;5072580;28;20498;-78
2023/08/14 12:32:22;;;;;;;5.65;2.50;;;12.90;89.40;;;;;;5071577;28;20033;-78
2023/08/14 12:34:50;;;;;;;4.05;2.33;;;12.90;89.50;;;;;;5072674;28;20098;-77
2023/08/14 12:37:18;;;;;;;5.63;2.55;;;12.90;89.60;;;;;;5072717;28;20103;-77
2023/08/14 12:39:53;;;;;;;4.72;2.42;;;12.90;89.70;;;;;;5072494;28;20028;-78
2023/08/14 12:42:21;;;;;;;5.18;2.22;;;12.90;89.50;;;;;;5072729;28;20016;-76
2023/08/14 12:44:53;;;;;;;5.75;2.42;;;12.90;89.50;;;;;;5072613;28;20024;-78
2023/08/14 12:47:20;;;;;;;2.50;1.90;;;12.80;89.20;;;;;;5072638;28;20021;-76
2023/08/14 12:49:48;;;;;;;3.75;2.30;;;12.90;89.70;;;;;;5072560;28;20398;-75
2023/08/14 12:52:15;;;;;;;2.97;2.20;;;12.90;89.60;;;;;;5072430;28;20475;-76
2023/08/14 12:54:43;;;;;;;5.03;1.85;;;12.80;89.40;;;;;;5072627;28;20548;-80
2023/08/14 12:57:10;;;;;;;3.60;2.20;;;12.80;89.20;;;;;;5072574;28;20031;-76